Time;durP1;ratioP1;P1;durP2;ratioP2;P2;SDS_P1;SDS_P2;PMS_P1;PMS_P2;Temp;Humidity;BMP_temperature;BMP_pressure;BME280_temperature;BME280_humidity;BME280_pressure;Samples;Min_cycle;Max_cycle;Signal;HPM_P1;HPM_P2
2022/01/21 00:00:48;;;;;;;19.30;3.42;;;;;;;;;;5134052;27;20048;-66
2022/01/21 00:03:14;;;;;;;13.85;2.92;;;;;;;;;;5114599;27;20059;-66
2022/01/21 00:05:40;;;;;;;14.63;3.20;;;;;;;;;;5133757;27;20059;-67
2022/01/21 00:08:07;;;;;;;13.70;2.33;;;;;;;;;;5116298;27;20056;-66
2022/01/21 00:10:33;;;;;;;13.23;3.10;;;;;;;;;;5134260;27;20058;-68
2022/01/21 00:12:59;;;;;;;19.95;3.00;;;;;;;;;;5135090;27;20055;-66
2022/01/21 00:15:26;;;;;;;10.95;2.65;;;;;;;;;;5135492;27;20048;-65
2022/01/21 00:17:52;;;;;;;9.50;3.20;;;;;;;;;;5135214;27;20502;-66
2022/01/21 00:31:17;;;;;;;10.02;2.63;;;;;;;;;;5125665;27;20056;-66
2022/01/21 00:33:44;;;;;;;10.52;2.35;;;;;;;;;;5130428;27;20055;-66
2022/01/21 00:36:10;;;;;;;10.05;2.70;;;;;;;;;;5128636;27;20051;-67
2022/01/21 00:38:40;;;;;;;9.43;2.53;;;;;;;;;;5139513;27;20109;-67
2022/01/21 00:41:07;;;;;;;21.02;3.80;;;;;;;;;;5122711;27;20130;-66
2022/01/21 00:43:43;;;;;;;21.60;3.13;;;;;;;;;;5115778;27;20070;-67
2022/01/21 00:46:11;;;;;;;15.30;2.58;;;;;;;;;;5116193;27;20074;-66
2022/01/21 00:48:37;;;;;;;16.80;2.53;;;;;;;;;;5122566;27;20048;-66
2022/01/21 00:51:03;;;;;;;8.10;2.47;;;;;;;;;;5132870;27;20512;-67
2022/01/21 00:53:30;;;;;;;15.60;2.40;;;;;;;;;;5138377;27;20060;-66
2022/01/21 00:55:56;;;;;;;14.75;2.15;;;;;;;;;;5134041;27;20048;-66
2022/01/21 00:58:22;;;;;;;10.77;2.47;;;;;;;;;;5115437;27;20146;-66
2022/01/21 01:00:49;;;;;;;16.23;3.13;;;;;;;;;;5130111;27;20055;-66
2022/01/21 01:03:19;;;;;;;19.30;3.28;;;;;;;;;;5133837;27;20063;-66
2022/01/21 01:05:48;;;;;;;19.02;3.08;;;;;;;;;;5134326;27;20052;-65
2022/01/21 01:08:14;;;;;;;17.95;3.25;;;;;;;;;;5133931;27;20138;-67
2022/01/21 01:21:36;;;;;;;14.10;2.38;;;;;;;;;;5131842;27;20056;-67
2022/01/21 01:29:21;;;;;;;14.52;3.20;;;;;;;;;;5129157;27;20047;-65
2022/01/21 01:31:48;;;;;;;7.63;1.98;;;;;;;;;;5125662;27;20056;-66
2022/01/21 01:34:14;;;;;;;14.00;2.22;;;;;;;;;;5114883;27;20055;-66
2022/01/21 01:36:45;;;;;;;11.88;2.67;;;;;;;;;;5117681;27;20048;-66
2022/01/21 01:41:51;;;;;;;22.15;3.08;;;;;;;;;;5133727;27;20051;-66
2022/01/21 01:49:48;;;;;;;19.55;2.63;;;;;;;;;;5133502;27;20047;-65
2022/01/21 01:52:15;;;;;;;13.38;2.38;;;;;;;;;;5133784;27;20052;-65
2022/01/21 01:54:47;;;;;;;14.07;2.47;;;;;;;;;;5114998;27;20146;-66
2022/01/21 01:57:13;;;;;;;9.00;2.03;;;;;;;;;;5122065;27;20051;-66
2022/01/21 01:59:40;;;;;;;11.25;2.30;;;;;;;;;;5131329;27;20058;-65
2022/01/21 02:02:09;;;;;;;7.97;2.45;;;;;;;;;;5114980;27;20051;-66
2022/01/21 02:04:36;;;;;;;14.88;2.20;;;;;;;;;;5125374;27;20051;-65
2022/01/21 02:07:02;;;;;;;14.93;2.50;;;;;;;;;;5131933;27;20135;-66
2022/01/21 02:09:29;;;;;;;14.23;2.10;;;;;;;;;;5133253;27;20582;-67
2022/01/21 02:11:55;;;;;;;21.10;2.80;;;;;;;;;;5132131;27;20147;-66
2022/01/21 02:14:27;;;;;;;12.25;2.38;;;;;;;;;;5133603;27;20052;-65
2022/01/21 02:22:12;;;;;;;7.75;1.83;;;;;;;;;;5124907;27;20063;-66
2022/01/21 02:27:14;;;;;;;11.88;2.25;;;;;;;;;;5128522;27;20051;-65
2022/01/21 02:29:49;;;;;;;12.95;2.20;;;;;;;;;;5132520;27;20052;-65
2022/01/21 02:32:16;;;;;;;11.38;1.50;;;;;;;;;;5115606;27;20117;-66
2022/01/21 02:34:43;;;;;;;15.82;2.70;;;;;;;;;;5125767;27;20061;-66
2022/01/21 02:37:10;;;;;;;8.93;2.10;;;;;;;;;;5136239;27;20054;-65
2022/01/21 02:39:36;;;;;;;12.25;2.00;;;;;;;;;;5132024;27;20055;-66
2022/01/21 02:42:03;;;;;;;10.38;2.28;;;;;;;;;;5129561;27;20059;-65
2022/01/21 02:44:29;;;;;;;10.25;1.77;;;;;;;;;;5137664;27;20051;-66
2022/01/21 02:46:58;;;;;;;13.40;1.90;;;;;;;;;;5131904;27;20055;-66
2022/01/21 02:49:25;;;;;;;8.48;2.08;;;;;;;;;;5131174;27;20130;-66
2022/01/21 02:51:53;;;;;;;10.43;2.00;;;;;;;;;;5128843;27;20062;-66
2022/01/21 02:54:19;;;;;;;11.05;2.20;;;;;;;;;;5116771;27;20056;-66
2022/01/21 02:56:46;;;;;;;13.57;2.45;;;;;;;;;;5112541;27;20497;-66
2022/01/21 02:59:12;;;;;;;12.85;2.30;;;;;;;;;;5129953;27;20054;-66
2022/01/21 03:01:40;;;;;;;11.02;2.00;;;;;;;;;;5129155;27;20154;-67
2022/01/21 03:04:08;;;;;;;8.20;1.92;;;;;;;;;;5134402;27;20060;-66
2022/01/21 03:06:37;;;;;;;11.05;1.70;;;;;;;;;;5131043;27;20503;-67
2022/01/21 03:09:04;;;;;;;8.48;2.85;;;;;;;;;;5131804;27;20510;-66
2022/01/21 03:11:30;;;;;;;8.38;1.80;;;;;;;;;;5133883;27;20052;-66
2022/01/21 03:13:57;;;;;;;4.75;1.27;;;;;;;;;;5137813;27;20052;-65
2022/01/21 03:16:23;;;;;;;12.27;1.73;;;;;;;;;;5119598;27;20525;-66
2022/01/21 03:18:50;;;;;;;12.15;1.85;;;;;;;;;;5124899;27;20517;-66
2022/01/21 03:21:17;;;;;;;13.00;1.60;;;;;;;;;;5133861;27;20052;-66
2022/01/21 03:23:46;;;;;;;14.77;2.85;;;;;;;;;;5151476;27;20066;-66
2022/01/21 03:26:16;;;;;;;12.45;2.03;;;;;;;;;;5136392;27;20057;-66
2022/01/21 03:28:43;;;;;;;5.82;1.00;;;;;;;;;;5135459;27;20048;-66
2022/01/21 03:31:10;;;;;;;12.27;1.83;;;;;;;;;;5134070;27;20050;-65
2022/01/21 03:33:36;;;;;;;3.55;0.95;;;;;;;;;;5135623;27;20238;-66
2022/01/21 03:36:03;;;;;;;12.75;1.50;;;;;;;;;;5136022;27;20056;-65
2022/01/21 03:38:29;;;;;;;6.43;1.13;;;;;;;;;;5126688;27;20043;-65
2022/01/21 03:40:55;;;;;;;8.60;1.10;;;;;;;;;;5131387;27;20056;-65
2022/01/21 03:43:22;;;;;;;7.28;2.28;;;;;;;;;;5114628;27;20479;-65
2022/01/21 03:45:49;;;;;;;13.50;1.88;;;;;;;;;;5115218;27;20095;-66
2022/01/21 03:48:16;;;;;;;10.18;1.70;;;;;;;;;;5116775;27;20056;-65
2022/01/21 03:50:43;;;;;;;4.63;1.25;;;;;;;;;;5138864;27;20601;-65
2022/01/21 03:53:09;;;;;;;11.35;1.23;;;;;;;;;;5114692;27;20056;-66
2022/01/21 03:55:36;;;;;;;7.47;1.35;;;;;;;;;;5116961;27;20058;-66
2022/01/21 03:58:06;;;;;;;6.82;0.90;;;;;;;;;;5114777;28;20127;-65
2022/01/21 04:00:34;;;;;;;12.65;1.70;;;;;;;;;;5122693;27;20504;-66
2022/01/21 04:03:01;;;;;;;4.80;1.13;;;;;;;;;;5124005;27;20044;-66
2022/01/21 04:05:27;;;;;;;8.02;1.27;;;;;;;;;;5119928;27;20484;-65
2022/01/21 04:07:54;;;;;;;8.20;1.33;;;;;;;;;;5135203;27;20062;-66
2022/01/21 04:10:20;;;;;;;6.20;1.42;;;;;;;;;;5135035;27;20058;-66
2022/01/21 04:12:46;;;;;;;8.20;1.20;;;;;;;;;;5135094;27;20491;-65
2022/01/21 04:15:13;;;;;;;7.00;1.00;;;;;;;;;;5134050;27;20059;-67
2022/01/21 04:17:39;;;;;;;6.88;1.60;;;;;;;;;;5131828;27;20535;-66
2022/01/21 04:20:07;;;;;;;10.32;2.47;;;;;;;;;;5132314;27;20047;-66
2022/01/21 04:22:33;;;;;;;5.95;1.02;;;;;;;;;;5116427;27;20056;-66
2022/01/21 04:25:00;;;;;;;7.72;1.50;;;;;;;;;;5124280;27;20079;-66
2022/01/21 04:27:27;;;;;;;7.18;1.15;;;;;;;;;;5128275;27;20059;-67
2022/01/21 04:29:53;;;;;;;4.35;1.13;;;;;;;;;;5121416;27;20055;-66
2022/01/21 04:32:19;;;;;;;12.85;1.63;;;;;;;;;;5145307;27;20051;-67
2022/01/21 04:34:46;;;;;;;8.95;1.27;;;;;;;;;;5134956;27;20525;-66
2022/01/21 04:37:14;;;;;;;7.40;1.20;;;;;;;;;;5133937;27;20055;-67
2022/01/21 04:39:48;;;;;;;8.27;1.42;;;;;;;;;;5131884;27;20051;-66
2022/01/21 04:47:34;;;;;;;4.30;1.20;;;;;;;;;;5122180;27;20453;-66
2022/01/21 04:50:00;;;;;;;7.60;1.00;;;;;;;;;;5124129;27;20054;-66
2022/01/21 04:52:26;;;;;;;6.85;1.00;;;;;;;;;;5133811;27;20059;-67
2022/01/21 04:54:53;;;;;;;3.60;0.90;;;;;;;;;;5135330;27;20054;-66
2022/01/21 04:57:19;;;;;;;8.07;1.50;;;;;;;;;;5111591;28;20412;-66
2022/01/21 04:59:46;;;;;;;7.95;1.17;;;;;;;;;;5115931;27;20485;-66
2022/01/21 05:02:12;;;;;;;8.57;1.60;;;;;;;;;;5119856;27;20054;-66
2022/01/21 05:04:39;;;;;;;5.93;0.95;;;;;;;;;;5113173;27;20139;-66
2022/01/21 05:07:08;;;;;;;4.57;0.68;;;;;;;;;;5121000;27;20051;-67
2022/01/21 05:09:35;;;;;;;8.02;1.98;;;;;;;;;;5134137;27;20047;-66
2022/01/21 05:12:03;;;;;;;13.23;1.40;;;;;;;;;;5133330;27;20047;-66
2022/01/21 05:14:49;;;;;;;4.57;1.02;;;;;;;;;;5133692;27;20164;-66
2022/01/21 05:17:16;;;;;;;10.65;1.38;;;;;;;;;;5135617;27;20819;-66
2022/01/21 05:19:42;;;;;;;16.70;1.35;;;;;;;;;;5116585;27;20074;-65
2022/01/21 05:22:09;;;;;;;4.20;1.08;;;;;;;;;;5133308;27;20056;-65
2022/01/21 05:24:35;;;;;;;10.82;1.35;;;;;;;;;;5124257;27;20055;-65
2022/01/21 05:27:02;;;;;;;11.10;2.05;;;;;;;;;;5119844;27;20052;-66
2022/01/21 05:29:29;;;;;;;8.50;1.45;;;;;;;;;;5133808;27;20082;-65
2022/01/21 05:31:56;;;;;;;10.68;1.30;;;;;;;;;;5123505;27;20166;-67
2022/01/21 05:34:22;;;;;;;5.78;1.40;;;;;;;;;;5132701;27;20055;-65
2022/01/21 05:36:49;;;;;;;6.40;1.58;;;;;;;;;;5132806;27;20047;-65
2022/01/21 05:39:16;;;;;;;9.52;1.77;;;;;;;;;;5132822;27;20048;-65
2022/01/21 05:41:48;;;;;;;5.63;1.25;;;;;;;;;;5133905;27;20520;-65
2022/01/21 05:46:22;;;;;;;14.75;1.95;;;;;;;;;;5133232;27;20058;-65
2022/01/21 05:47:02;;;;;;;6.45;2.00;;;;;;;;;;5128686;27;20067;-66
2022/01/21 05:49:30;;;;;;;6.03;1.70;;;;;;;;;;5129541;27;20052;-65
2022/01/21 05:52:35;;;;;;;6.13;1.40;;;;;;;;;;5129169;27;20055;-66
2022/01/21 05:54:49;;;;;;;11.43;1.20;;;;;;;;;;5128007;27;20438;-66
2022/01/21 05:57:17;;;;;;;9.77;1.90;;;;;;;;;;5131506;27;20277;-65
2022/01/21 05:59:43;;;;;;;9.35;2.45;;;;;;;;;;5131501;27;20055;-65
2022/01/21 06:02:10;;;;;;;9.38;1.90;;;;;;;;;;5130893;27;20043;-65
2022/01/21 06:04:38;;;;;;;6.03;1.95;;;;;;;;;;5130206;27;20062;-66
2022/01/21 06:07:04;;;;;;;7.47;2.15;;;;;;;;;;5116137;27;20048;-65
2022/01/21 06:09:31;;;;;;;8.07;1.40;;;;;;;;;;5133450;27;20503;-65
2022/01/21 06:11:57;;;;;;;9.27;2.55;;;;;;;;;;5127189;27;20044;-65
2022/01/21 06:14:26;;;;;;;6.85;2.05;;;;;;;;;;5130431;27;20071;-65
2022/01/21 06:16:53;;;;;;;11.15;2.28;;;;;;;;;;5132561;27;20048;-67
2022/01/21 06:19:19;;;;;;;11.88;2.00;;;;;;;;;;5132593;27;20054;-65
2022/01/21 06:21:45;;;;;;;10.30;1.75;;;;;;;;;;5130817;27;20055;-65
2022/01/21 06:24:19;;;;;;;12.07;2.95;;;;;;;;;;5131114;27;20044;-65
2022/01/21 06:26:46;;;;;;;11.50;2.53;;;;;;;;;;5128081;27;20052;-65
2022/01/21 06:29:12;;;;;;;10.27;1.70;;;;;;;;;;5131082;27;20054;-65
2022/01/21 06:31:38;;;;;;;10.82;1.63;;;;;;;;;;5132100;27;20149;-66
2022/01/21 06:34:05;;;;;;;6.75;2.30;;;;;;;;;;5130608;27;20079;-65
2022/01/21 06:36:31;;;;;;;5.97;1.30;;;;;;;;;;5131074;27;20062;-66
2022/01/21 06:38:57;;;;;;;7.50;1.40;;;;;;;;;;5131616;27;20056;-65
2022/01/21 06:41:24;;;;;;;7.90;1.50;;;;;;;;;;5129602;27;20498;-64
2022/01/21 06:43:50;;;;;;;3.30;1.40;;;;;;;;;;5123908;27;20047;-65
2022/01/21 06:46:17;;;;;;;4.30;1.42;;;;;;;;;;5125284;27;20051;-65
2022/01/21 06:48:43;;;;;;;7.70;2.20;;;;;;;;;;5129763;27;20096;-67
2022/01/21 06:51:10;;;;;;;8.88;1.38;;;;;;;;;;5139408;27;20054;-66
2022/01/21 06:53:36;;;;;;;13.52;2.80;;;;;;;;;;5143568;27;20059;-66
2022/01/21 06:56:02;;;;;;;7.03;1.80;;;;;;;;;;5144116;27;20048;-66
2022/01/21 06:58:29;;;;;;;7.18;1.08;;;;;;;;;;5145360;27;20062;-67
2022/01/21 07:00:55;;;;;;;13.60;1.90;;;;;;;;;;5143527;27;20495;-69
2022/01/21 07:03:21;;;;;;;3.85;1.30;;;;;;;;;;5146895;27;20082;-68
2022/01/21 07:05:48;;;;;;;4.55;1.55;;;;;;;;;;5143484;27;20047;-69
2022/01/21 07:08:15;;;;;;;8.90;1.55;;;;;;;;;;5146196;27;20051;-67
2022/01/21 07:10:41;;;;;;;9.57;2.03;;;;;;;;;;5157838;27;20130;-67
2022/01/21 07:13:08;;;;;;;7.53;1.90;;;;;;;;;;5153654;27;20051;-67
2022/01/21 07:15:34;;;;;;;8.75;1.30;;;;;;;;;;5141873;27;20054;-67
2022/01/21 07:18:01;;;;;;;7.80;1.52;;;;;;;;;;5141813;27;20051;-68
2022/01/21 07:20:27;;;;;;;9.77;1.90;;;;;;;;;;5142534;27;20054;-66
2022/01/21 07:22:53;;;;;;;9.70;1.92;;;;;;;;;;5136926;27;20511;-66
2022/01/21 07:25:20;;;;;;;5.43;1.60;;;;;;;;;;5136617;27;20059;-66
2022/01/21 07:27:49;;;;;;;12.55;2.22;;;;;;;;;;5136393;27;20459;-67
2022/01/21 07:30:15;;;;;;;6.63;1.45;;;;;;;;;;5136968;27;20052;-66
2022/01/21 07:32:42;;;;;;;2.72;1.15;;;;;;;;;;5122142;27;20055;-66
2022/01/21 07:35:09;;;;;;;4.97;1.45;;;;;;;;;;5140742;27;20062;-67
2022/01/21 07:37:53;;;;;;;12.73;2.10;;;;;;;;;;5136999;27;20056;-66
2022/01/21 07:40:19;;;;;;;6.68;1.60;;;;;;;;;;5122219;27;20051;-66
2022/01/21 07:42:45;;;;;;;12.65;1.80;;;;;;;;;;5136597;27;20504;-66
2022/01/21 07:45:11;;;;;;;7.13;1.52;;;;;;;;;;5136694;27;20052;-68
2022/01/21 07:47:38;;;;;;;10.10;1.88;;;;;;;;;;5136471;27;20467;-67
2022/01/21 07:50:04;;;;;;;5.47;1.30;;;;;;;;;;5143265;27;20054;-68
2022/01/21 07:52:31;;;;;;;8.40;2.42;;;;;;;;;;5118355;27;20051;-67
2022/01/21 07:54:57;;;;;;;10.55;1.90;;;;;;;;;;5142265;27;20058;-67
2022/01/21 07:57:23;;;;;;;12.55;1.85;;;;;;;;;;5135392;27;20047;-66
2022/01/21 07:59:50;;;;;;;5.65;1.77;;;;;;;;;;5120699;27;20051;-66
2022/01/21 08:02:17;;;;;;;7.88;1.88;;;;;;;;;;5136467;27;20173;-64
2022/01/21 08:04:43;;;;;;;9.40;2.30;;;;;;;;;;5135672;27;20055;-65
2022/01/21 08:07:10;;;;;;;14.50;3.22;;;;;;;;;;5136389;27;20047;-65
2022/01/21 08:09:36;;;;;;;7.00;2.08;;;;;;;;;;5135075;27;20054;-65
2022/01/21 08:12:03;;;;;;;11.82;2.47;;;;;;;;;;5117961;27;20054;-65
2022/01/21 08:14:29;;;;;;;10.15;2.83;;;;;;;;;;5136200;27;20055;-65
2022/01/21 08:16:56;;;;;;;12.75;2.47;;;;;;;;;;5135688;27;20566;-66
2022/01/21 08:19:22;;;;;;;11.65;2.88;;;;;;;;;;5140903;27;20051;-66
2022/01/21 08:21:48;;;;;;;11.93;3.05;;;;;;;;;;5156267;27;20489;-66
2022/01/21 08:24:15;;;;;;;6.60;2.63;;;;;;;;;;5148210;27;20497;-65
2022/01/21 08:26:41;;;;;;;15.30;3.13;;;;;;;;;;5125109;27;20564;-66
2022/01/21 08:29:08;;;;;;;8.52;3.30;;;;;;;;;;5132628;27;20130;-66
2022/01/21 08:31:34;;;;;;;9.85;3.25;;;;;;;;;;5125767;27;20080;-66
2022/01/21 08:34:01;;;;;;;13.77;3.75;;;;;;;;;;5135933;27;20058;-67
2022/01/21 08:36:27;;;;;;;8.93;3.13;;;;;;;;;;5148775;27;20574;-67
2022/01/21 08:38:54;;;;;;;12.10;3.13;;;;;;;;;;5137415;27;20056;-67
2022/01/21 08:41:21;;;;;;;10.30;2.88;;;;;;;;;;5136219;27;20056;-66
2022/01/21 08:43:48;;;;;;;15.48;4.30;;;;;;;;;;5135419;27;20276;-66
2022/01/21 08:46:14;;;;;;;8.23;2.75;;;;;;;;;;5135771;27;20059;-66
2022/01/21 08:48:41;;;;;;;7.05;2.60;;;;;;;;;;5135074;27;20135;-69
2022/01/21 08:51:12;;;;;;;9.15;2.83;;;;;;;;;;5133290;27;20055;-67
2022/01/21 08:53:41;;;;;;;10.20;2.95;;;;;;;;;;5139075;27;20053;-67
2022/01/21 08:56:09;;;;;;;10.35;2.58;;;;;;;;;;5134910;27;20047;-67
2022/01/21 08:58:36;;;;;;;10.07;3.50;;;;;;;;;;5136505;27;20491;-68
2022/01/21 09:01:02;;;;;;;24.67;3.65;;;;;;;;;;5140676;27;20517;-67
2022/01/21 09:03:29;;;;;;;13.07;2.80;;;;;;;;;;5143855;27;20141;-66
2022/01/21 09:05:56;;;;;;;21.88;3.42;;;;;;;;;;5150261;27;20051;-65
2022/01/21 09:08:24;;;;;;;13.77;2.28;;;;;;;;;;5151539;27;20536;-66
2022/01/21 09:10:51;;;;;;;11.38;3.05;;;;;;;;;;5135222;27;20574;-66
2022/01/21 09:13:17;;;;;;;16.63;2.95;;;;;;;;;;5139734;27;20059;-67
2022/01/21 09:15:43;;;;;;;9.70;2.78;;;;;;;;;;5135856;27;20047;-66
2022/01/21 09:18:10;;;;;;;16.63;3.63;;;;;;;;;;5135248;27;20550;-66
2022/01/21 09:20:37;;;;;;;9.45;2.67;;;;;;;;;;5134899;27;20426;-65
2022/01/21 09:23:04;;;;;;;15.77;2.90;;;;;;;;;;5135336;27;20130;-66
2022/01/21 09:25:30;;;;;;;14.48;2.85;;;;;;;;;;5134372;27;20139;-65
2022/01/21 09:27:58;;;;;;;11.32;2.92;;;;;;;;;;5135363;27;20044;-65
2022/01/21 09:30:25;;;;;;;15.82;3.00;;;;;;;;;;5116308;27;20575;-65
2022/01/21 09:32:52;;;;;;;10.45;2.75;;;;;;;;;;5135196;27;20090;-65
2022/01/21 09:35:18;;;;;;;14.63;3.20;;;;;;;;;;5133968;27;20532;-65
2022/01/21 09:37:44;;;;;;;12.27;2.90;;;;;;;;;;5134926;27;20056;-66
2022/01/21 09:40:31;;;;;;;10.15;2.90;;;;;;;;;;5134396;27;20062;-66
2022/01/21 09:42:58;;;;;;;13.63;2.63;;;;;;;;;;5134918;27;20055;-67
2022/01/21 09:45:25;;;;;;;12.98;3.25;;;;;;;;;;5134864;27;20052;-67
2022/01/21 09:47:54;;;;;;;8.98;3.03;;;;;;;;;;5134530;27;20150;-67
2022/01/21 09:50:21;;;;;;;14.95;3.72;;;;;;;;;;5116594;27;20056;-68
2022/01/21 09:52:48;;;;;;;17.17;4.15;;;;;;;;;;5134477;27;20086;-67
2022/01/21 09:55:17;;;;;;;15.95;3.13;;;;;;;;;;5134064;27;20127;-66
2022/01/21 09:57:46;;;;;;;10.50;3.13;;;;;;;;;;5134636;27;20051;-66
2022/01/21 10:00:13;;;;;;;15.70;3.25;;;;;;;;;;5133980;27;20048;-70
2022/01/21 10:02:40;;;;;;;9.95;2.60;;;;;;;;;;5134357;27;20126;-67
2022/01/21 10:05:07;;;;;;;15.00;3.60;;;;;;;;;;5133921;27;20066;-67
2022/01/21 10:07:34;;;;;;;11.43;2.80;;;;;;;;;;5135061;27;20050;-67
2022/01/21 10:10:07;;;;;;;15.23;3.13;;;;;;;;;;5134307;27;20505;-65
2022/01/21 10:12:48;;;;;;;;;;;;;;;;;;5134894;27;20122;-66
2022/01/21 10:15:16;;;;;;;14.32;3.00;;;;;;;;;;5133730;27;45788;-68
2022/01/21 10:18:00;;;;;;;17.52;3.05;;;;;;;;;;5134408;27;20044;-66
2022/01/21 10:20:37;;;;;;;17.65;2.88;;;;;;;;;;5132616;27;20104;-65
2022/01/21 10:23:12;;;;;;;11.93;3.35;;;;;;;;;;5133863;27;20048;-65
2022/01/21 10:25:40;;;;;;;11.70;2.95;;;;;;;;;;5133591;27;20373;-65
2022/01/21 10:28:10;;;;;;;16.02;2.78;;;;;;;;;;5133161;27;20059;-66
2022/01/21 10:30:37;;;;;;;19.63;3.83;;;;;;;;;;5134307;27;20562;-65
2022/01/21 10:33:20;;;;;;;9.27;2.95;;;;;;;;;;5133902;27;20052;-66
2022/01/21 10:35:49;;;;;;;16.83;3.47;;;;;;;;;;5113090;28;20501;-66
2022/01/21 10:38:16;;;;;;;16.13;3.50;;;;;;;;;;5113447;28;20088;-65
2022/01/21 10:40:43;;;;;;;12.82;3.30;;;;;;;;;;5114417;27;20091;-68
2022/01/21 10:43:10;;;;;;;11.00;3.25;;;;;;;;;;5132843;27;20071;-65
2022/01/21 10:45:49;;;;;;;12.07;3.35;;;;;;;;;;5133646;27;20052;-66
2022/01/21 10:48:16;;;;;;;18.88;3.78;;;;;;;;;;5133050;27;20052;-65
2022/01/21 10:50:42;;;;;;;11.52;3.20;;;;;;;;;;5144793;27;20470;-65
2022/01/21 10:53:24;;;;;;;23.65;3.95;;;;;;;;;;5135663;27;20079;-66
2022/01/21 10:55:51;;;;;;;15.10;3.30;;;;;;;;;;5133553;27;20127;-66
2022/01/21 10:58:21;;;;;;;14.43;3.53;;;;;;;;;;5115688;27;20052;-67
2022/01/21 11:00:58;;;;;;;17.67;3.10;;;;;;;;;;5132233;27;20482;-67
2022/01/21 11:03:25;;;;;;;24.15;4.03;;;;;;;;;;5131649;27;20047;-66
2022/01/21 11:06:07;;;;;;;17.55;3.55;;;;;;;;;;5130183;27;20058;-66
2022/01/21 11:08:34;;;;;;;13.15;3.78;;;;;;;;;;5131845;27;20161;-66
2022/01/21 11:11:01;;;;;;;21.17;4.22;;;;;;;;;;5132833;27;20058;-66
2022/01/21 11:13:28;;;;;;;18.33;3.58;;;;;;;;;;5132130;27;20055;-66
2022/01/21 11:15:57;;;;;;;17.63;3.03;;;;;;;;;;5132893;27;20050;-66
2022/01/21 11:18:48;;;;;;;19.13;3.75;;;;;;;;;;5116283;27;20044;-66
2022/01/21 11:21:14;;;;;;;14.98;3.35;;;;;;;;;;5124134;27;20051;-66
2022/01/21 11:23:41;;;;;;;17.13;3.58;;;;;;;;;;5133152;27;20052;-66
2022/01/21 11:26:09;;;;;;;14.30;2.85;;;;;;;;;;5132952;27;20064;-67
2022/01/21 11:28:37;;;;;;;14.93;3.53;;;;;;;;;;5133584;27;20078;-67
2022/01/21 11:31:04;;;;;;;17.08;3.08;;;;;;;;;;5121519;27;20135;-66
2022/01/21 11:33:31;;;;;;;9.73;3.03;;;;;;;;;;5144916;27;20052;-66
2022/01/21 11:35:57;;;;;;;15.38;3.88;;;;;;;;;;5137241;27;20058;-66
2022/01/21 11:38:25;;;;;;;18.13;3.47;;;;;;;;;;5141848;27;20540;-66
2022/01/21 11:40:52;;;;;;;13.63;2.85;;;;;;;;;;5135138;27;20048;-67
2022/01/21 11:43:19;;;;;;;17.63;3.67;;;;;;;;;;5134897;27;20537;-66
2022/01/21 11:50:55;;;;;;;13.57;2.88;;;;;;;;;;5132856;27;20052;-65
2022/01/21 11:53:40;;;;;;;13.05;3.08;;;;;;;;;;5135435;27;20062;-66
2022/01/21 11:56:27;;;;;;;12.75;2.60;;;;;;;;;;5136700;27;20055;-66
2022/01/21 11:58:53;;;;;;;;;;;;;;;;;;5134456;27;20044;-66
2022/01/21 12:01:31;;;;;;;18.25;4.28;;;;;;;;;;5133450;27;46900;-66
2022/01/21 12:04:00;;;;;;;17.73;3.30;;;;;;;;;;5134433;27;20506;-67
2022/01/21 12:06:31;;;;;;;12.32;2.53;;;;;;;;;;5133325;27;20055;-66
2022/01/21 12:08:59;;;;;;;14.07;3.08;;;;;;;;;;5133112;27;20079;-67
2022/01/21 12:11:34;;;;;;;17.65;3.55;;;;;;;;;;5134555;27;20058;-67
2022/01/21 12:14:04;;;;;;;14.20;2.38;;;;;;;;;;5135439;27;20056;-68
2022/01/21 12:16:51;;;;;;;10.23;2.35;;;;;;;;;;5131818;27;20062;-68
2022/01/21 12:19:26;;;;;;;14.05;1.83;;;;;;;;;;5134782;27;20074;-68
2022/01/21 12:21:53;;;;;;;12.82;2.10;;;;;;;;;;5133617;27;20524;-69
2022/01/21 12:24:38;;;;;;;12.63;2.45;;;;;;;;;;5135712;27;20610;-66
2022/01/21 12:27:04;;;;;;;7.75;1.50;;;;;;;;;;5133881;27;20052;-67
2022/01/21 12:29:31;;;;;;;15.50;2.35;;;;;;;;;;5135544;27;20058;-66
2022/01/21 12:32:03;;;;;;;16.40;2.55;;;;;;;;;;5134852;27;20517;-68
2022/01/21 12:34:50;;;;;;;17.80;2.42;;;;;;;;;;5134424;27;20055;-68
2022/01/21 12:37:23;;;;;;;8.73;2.08;;;;;;;;;;5130609;27;20454;-67
2022/01/21 12:39:49;;;;;;;10.30;1.70;;;;;;;;;;5131812;27;20144;-69
2022/01/21 12:42:26;;;;;;;7.88;1.83;;;;;;;;;;5136470;27;20818;-68
2022/01/21 12:44:57;;;;;;;17.63;2.70;;;;;;;;;;5127310;27;20052;-67
2022/01/21 12:47:40;;;;;;;10.20;2.78;;;;;;;;;;5131295;27;20057;-67
2022/01/21 12:50:06;;;;;;;13.07;2.63;;;;;;;;;;5132080;27;20101;-67
2022/01/21 12:58:13;;;;;;;10.60;2.67;;;;;;;;;;5118902;27;20078;-67
2022/01/21 13:00:40;;;;;;;14.55;1.85;;;;;;;;;;5133362;27;20514;-69
2022/01/21 13:03:12;;;;;;;8.52;2.08;;;;;;;;;;5131652;27;20541;-68
2022/01/21 13:05:40;;;;;;;13.32;2.65;;;;;;;;;;5131362;27;20062;-66
2022/01/21 13:08:12;;;;;;;16.95;2.00;;;;;;;;;;5131091;27;20043;-68
2022/01/21 13:10:39;;;;;;;10.52;2.15;;;;;;;;;;5131932;27;20062;-69
2022/01/21 13:15:37;;;;;;;25.67;3.50;;;;;;;;;;5132821;27;20536;-68
2022/01/21 13:18:04;;;;;;;19.90;2.13;;;;;;;;;;5134670;27;20580;-67
2022/01/21 13:20:33;;;;;;;7.68;1.90;;;;;;;;;;5133468;27;20087;-67
2022/01/21 13:23:00;;;;;;;16.55;3.17;;;;;;;;;;5131130;27;20065;-67
2022/01/21 13:25:26;;;;;;;12.77;3.35;;;;;;;;;;5131589;27;20142;-68
2022/01/21 13:27:54;;;;;;;14.57;1.88;;;;;;;;;;5132291;27;20051;-68
2022/01/21 13:30:21;;;;;;;7.13;1.85;;;;;;;;;;5126638;27;20165;-67
2022/01/21 13:32:56;;;;;;;11.80;1.67;;;;;;;;;;5129676;27;20052;-67
2022/01/21 13:35:24;;;;;;;12.00;1.95;;;;;;;;;;5131066;27;20061;-66
2022/01/21 13:38:01;;;;;;;16.67;3.63;;;;;;;;;;5129367;27;20052;-67
2022/01/21 13:40:30;;;;;;;17.90;2.53;;;;;;;;;;5115209;27;20091;-68
2022/01/21 13:43:30;;;;;;;11.75;1.63;;;;;;;;;;5113988;27;20052;-66
2022/01/21 13:46:01;;;;;;;12.50;1.80;;;;;;;;;;5088085;27;20055;-66
2022/01/21 13:48:32;;;;;;;7.47;1.27;;;;;;;;;;5132732;27;20047;-67
2022/01/21 13:50:58;;;;;;;14.35;3.00;;;;;;;;;;5125429;27;20498;-66
2022/01/21 13:53:26;;;;;;;14.57;2.92;;;;;;;;;;5119843;27;21584;-65
2022/01/21 13:55:54;;;;;;;6.93;1.65;;;;;;;;;;5132356;27;20051;-66
2022/01/21 13:58:22;;;;;;;7.85;2.13;;;;;;;;;;5133924;27;20128;-67
2022/01/21 14:00:50;;;;;;;7.57;1.50;;;;;;;;;;5132156;27;20670;-67
2022/01/21 14:03:17;;;;;;;13.65;2.05;;;;;;;;;;5128525;27;20051;-67
2022/01/21 14:05:46;;;;;;;15.38;2.45;;;;;;;;;;5130237;27;20048;-68
2022/01/21 14:08:14;;;;;;;12.38;2.15;;;;;;;;;;5130334;27;20506;-67
2022/01/21 14:10:40;;;;;;;23.13;2.60;;;;;;;;;;5128801;27;20057;-68
2022/01/21 14:13:07;;;;;;;14.45;2.55;;;;;;;;;;5130138;27;20060;-68
2022/01/21 14:15:33;;;;;;;13.55;2.58;;;;;;;;;;5131184;27;20047;-69
2022/01/21 14:17:59;;;;;;;16.45;2.67;;;;;;;;;;5130794;27;20513;-67
2022/01/21 14:20:27;;;;;;;11.85;2.05;;;;;;;;;;5129201;27;20051;-66
2022/01/21 14:22:57;;;;;;;7.85;2.10;;;;;;;;;;5113218;27;20052;-68
2022/01/21 14:25:23;;;;;;;18.17;2.38;;;;;;;;;;5124189;27;20074;-67
2022/01/21 14:27:51;;;;;;;15.23;2.58;;;;;;;;;;5112419;28;20433;-67
2022/01/21 14:30:19;;;;;;;14.88;2.00;;;;;;;;;;5124540;27;20189;-68
2022/01/21 14:32:53;;;;;;;17.67;3.22;;;;;;;;;;5128607;27;20400;-66
2022/01/21 14:35:25;;;;;;;13.82;3.45;;;;;;;;;;5128969;27;20927;-68
2022/01/21 14:38:02;;;;;;;14.52;2.58;;;;;;;;;;5130878;27;20491;-67
2022/01/21 14:40:33;;;;;;;17.00;2.70;;;;;;;;;;5130254;27;20048;-68
2022/01/21 14:43:15;;;;;;;16.02;2.83;;;;;;;;;;5128453;27;20526;-67
2022/01/21 14:45:42;;;;;;;13.23;2.38;;;;;;;;;;5128915;27;20086;-67
2022/01/21 14:48:13;;;;;;;7.13;1.90;;;;;;;;;;5134939;27;20051;-68
2022/01/21 14:50:39;;;;;;;12.48;2.10;;;;;;;;;;5124253;27;20473;-67
2022/01/21 14:53:16;;;;;;;12.10;2.38;;;;;;;;;;5138119;27;20059;-67
2022/01/21 14:55:44;;;;;;;15.18;2.65;;;;;;;;;;5130784;27;20764;-67
2022/01/21 14:58:12;;;;;;;13.07;2.00;;;;;;;;;;5128823;27;20056;-66
2022/01/21 15:00:42;;;;;;;14.65;2.45;;;;;;;;;;5129968;27;20138;-69
2022/01/21 15:03:13;;;;;;;9.27;2.38;;;;;;;;;;5128391;27;20086;-69
2022/01/21 15:05:42;;;;;;;10.40;2.35;;;;;;;;;;5127992;27;20059;-70
2022/01/21 15:08:12;;;;;;;9.65;2.08;;;;;;;;;;5133047;27;20101;-69
2022/01/21 15:10:43;;;;;;;14.18;2.40;;;;;;;;;;5141826;27;20047;-67
2022/01/21 15:16:11;;;;;;;16.55;2.40;;;;;;;;;;5115302;27;20131;-70
2022/01/21 15:18:38;;;;;;;11.43;2.17;;;;;;;;;;5137843;27;20485;-68
2022/01/21 15:21:12;;;;;;;19.42;2.63;;;;;;;;;;5142251;27;20414;-66
2022/01/21 15:23:38;;;;;;;9.93;2.40;;;;;;;;;;5135536;27;20055;-67
2022/01/21 15:26:07;;;;;;;11.95;2.83;;;;;;;;;;5117707;27;20537;-67
2022/01/21 15:28:33;;;;;;;17.13;2.97;;;;;;;;;;5140202;27;20126;-66
2022/01/21 15:30:59;;;;;;;14.85;3.90;;;;;;;;;;5148216;27;20136;-66
2022/01/21 15:33:26;;;;;;;11.57;2.55;;;;;;;;;;5133076;27;20047;-69
2022/01/21 15:35:52;;;;;;;15.55;2.83;;;;;;;;;;5135424;27;20513;-67
2022/01/21 15:38:18;;;;;;;6.13;1.75;;;;;;;;;;5136939;27;20147;-68
2022/01/21 15:40:45;;;;;;;8.50;2.88;;;;;;;;;;5135687;27;20052;-67
2022/01/21 15:43:11;;;;;;;11.10;2.28;;;;;;;;;;5117327;27;20047;-68
2022/01/21 15:45:40;;;;;;;11.73;2.40;;;;;;;;;;5134986;27;20067;-68
2022/01/21 15:48:08;;;;;;;19.08;3.05;;;;;;;;;;5146091;27;20094;-68